createdAt,value
2022-08-20T00:00:30.917Z,87.31
2022-08-20T00:03:44.761Z,87.09
2022-08-20T00:06:53.191Z,86.90
2022-08-20T00:09:56.280Z,86.79
2022-08-20T00:12:59.891Z,86.81
2022-08-20T00:16:04.443Z,86.84
2022-08-20T00:19:09.239Z,87.08
2022-08-20T00:22:13.626Z,87.22
2022-08-20T00:25:17.321Z,86.99
2022-08-20T00:28:20.565Z,87.09
2022-08-20T00:31:24.840Z,87.12
2022-08-20T00:34:28.152Z,86.78
2022-08-20T00:37:31.263Z,86.93
2022-08-20T00:40:38.457Z,86.97
2022-08-20T00:43:49.491Z,87.00
2022-08-20T00:46:54.162Z,86.97
2022-08-20T00:49:57.284Z,86.92
2022-08-20T00:53:02.887Z,86.86
2022-08-20T00:56:09.841Z,86.82
2022-08-20T00:59:24.071Z,86.80
2022-08-20T01:02:29.112Z,86.91
2022-08-20T01:05:32.350Z,87.08
2022-08-20T01:08:35.742Z,87.07
2022-08-20T01:11:39.056Z,87.17
2022-08-20T01:14:43.562Z,87.23
2022-08-20T01:17:51.606Z,87.23
2022-08-20T01:21:04.365Z,87.26
2022-08-20T01:24:32.643Z,87.47
2022-08-20T01:27:42.465Z,87.82
2022-08-20T01:30:59.100Z,87.89
2022-08-20T01:34:05.371Z,87.71
2022-08-20T01:37:08.872Z,87.84
2022-08-20T01:40:17.378Z,88.04
2022-08-20T01:43:21.457Z,87.94
2022-08-20T01:46:30.428Z,87.88
2022-08-20T01:49:35.712Z,88.01
2022-08-20T01:53:01.495Z,87.98
2022-08-20T01:56:08.178Z,87.94
2022-08-20T01:59:11.154Z,88.17
2022-08-20T02:02:14.682Z,88.23
2022-08-20T02:05:22.959Z,87.95
2022-08-20T02:08:28.884Z,87.59
2022-08-20T02:11:33.998Z,87.35
2022-08-20T02:14:43.615Z,87.05
2022-08-20T02:17:46.949Z,87.00
2022-08-20T02:20:51.887Z,86.93
2022-08-20T02:23:56.128Z,87.09
2022-08-20T02:26:59.923Z,87.53
2022-08-20T02:30:10.914Z,88.05
2022-08-20T02:33:24.630Z,88.24
2022-08-20T02:36:28.158Z,88.14
2022-08-20T02:39:32.554Z,87.91
2022-08-20T02:42:36.819Z,87.79
2022-08-20T02:45:43.994Z,87.71
2022-08-20T02:48:47.366Z,87.76
2022-08-20T02:51:50.487Z,87.69
2022-08-20T02:54:53.605Z,87.65
2022-08-20T02:57:59.738Z,87.67
2022-08-20T03:01:06.372Z,87.63
2022-08-20T03:04:09.756Z,87.67
2022-08-20T03:07:14.198Z,87.83
2022-08-20T03:10:17.765Z,87.80
2022-08-20T03:13:21.877Z,87.94
2022-08-20T03:16:25.037Z,87.99
2022-08-20T03:19:28.608Z,87.90
2022-08-20T03:22:32.039Z,87.84
2022-08-20T03:25:35.139Z,87.91
2022-08-20T03:28:39.202Z,88.01
2022-08-20T03:31:42.220Z,88.07
2022-08-20T03:34:45.481Z,88.15
2022-08-20T03:37:49.470Z,87.93
2022-08-20T03:40:53.141Z,87.87
2022-08-20T03:43:56.345Z,87.81
2022-08-20T03:46:59.736Z,87.74
2022-08-20T03:50:06.688Z,87.76
2022-08-20T03:53:13.092Z,87.87
2022-08-20T03:56:17.837Z,88.12
2022-08-20T03:59:20.997Z,87.93
2022-08-20T04:02:25.288Z,87.78
2022-08-20T04:05:31.397Z,87.73
2022-08-20T04:08:34.441Z,87.50
2022-08-20T04:11:37.646Z,87.30
2022-08-20T04:14:40.729Z,87.08
2022-08-20T04:17:47.460Z,86.95
2022-08-20T04:20:52.200Z,87.00
2022-08-20T04:23:56.957Z,87.17
2022-08-20T04:27:03.206Z,87.47
2022-08-20T04:30:11.367Z,87.76
2022-08-20T04:33:14.453Z,87.93
2022-08-20T04:36:22.491Z,87.97
2022-08-20T04:39:25.733Z,88.16
2022-08-20T04:42:29.378Z,88.19
2022-08-20T04:45:33.355Z,87.99
2022-08-20T04:48:39.414Z,87.73
2022-08-20T04:51:43.879Z,87.65
2022-08-20T04:54:47.771Z,87.78
2022-08-20T04:57:50.747Z,87.73
2022-08-20T05:01:01.113Z,87.58
2022-08-20T05:04:05.041Z,87.53
2022-08-20T05:07:08.253Z,87.49
2022-08-20T05:10:13.827Z,87.43
2022-08-20T05:13:17.517Z,87.30
2022-08-20T05:16:21.496Z,86.87
2022-08-20T05:19:24.697Z,86.74
2022-08-20T05:22:29.502Z,86.88
2022-08-20T05:25:35.368Z,86.91
2022-08-20T05:28:57.108Z,87.00
2022-08-20T05:32:03.052Z,86.82
2022-08-20T05:35:09.812Z,86.89
2022-08-20T05:38:15.703Z,86.82
2022-08-20T05:41:29.436Z,86.23
2022-08-20T05:44:33.333Z,85.74
2022-08-20T05:47:42.810Z,85.61
2022-08-20T05:50:49.578Z,85.37
2022-08-20T05:53:52.883Z,84.10
2022-08-20T05:56:57.638Z,84.46
2022-08-20T06:00:02.719Z,82.06
2022-08-20T06:03:33.439Z,80.73
2022-08-20T06:06:46.059Z,79.70
2022-08-20T06:09:50.297Z,78.82
2022-08-20T06:12:53.363Z,78.34
2022-08-20T06:15:57.792Z,77.71
2022-08-20T06:19:02.709Z,76.62
2022-08-20T06:22:17.373Z,75.57
2022-08-20T06:25:22.277Z,74.50
2022-08-20T06:28:25.712Z,74.13
2022-08-20T06:31:29.217Z,72.85
2022-08-20T06:34:32.832Z,72.36
2022-08-20T06:37:38.299Z,70.84
2022-08-20T06:40:41.946Z,70.49
2022-08-20T06:43:45.023Z,69.46
2022-08-20T06:46:48.246Z,68.91
2022-08-20T06:49:51.267Z,67.62
2022-08-20T06:52:54.561Z,66.90
2022-08-20T06:55:59.454Z,66.26
2022-08-20T06:59:02.782Z,65.28
2022-08-20T07:02:05.866Z,63.90
2022-08-20T07:05:10.535Z,63.67
2022-08-20T07:08:18.997Z,62.28
2022-08-20T07:11:27.299Z,62.49
2022-08-20T07:14:31.168Z,61.37
2022-08-20T07:17:36.406Z,60.61
2022-08-20T07:20:40.695Z,59.96
2022-08-20T07:23:44.112Z,59.21
2022-08-20T07:26:47.286Z,59.43
2022-08-20T07:30:12.930Z,57.70
2022-08-20T07:33:18.500Z,57.48
2022-08-20T07:36:21.994Z,57.20
2022-08-20T07:39:25.109Z,56.81
2022-08-20T07:42:29.927Z,55.85
2022-08-20T07:45:33.024Z,54.94
2022-08-20T07:48:41.969Z,54.70
2022-08-20T07:51:45.072Z,53.70
2022-08-20T07:54:48.377Z,52.88
2022-08-20T07:57:51.428Z,52.58
2022-08-20T08:00:54.602Z,51.65
2022-08-20T08:04:01.715Z,50.84
2022-08-20T08:07:06.801Z,50.80
2022-08-20T08:10:14.055Z,50.81
2022-08-20T08:13:17.520Z,48.85
2022-08-20T08:16:21.122Z,50.05
2022-08-20T08:19:26.229Z,49.22
2022-08-20T08:22:31.781Z,49.00
2022-08-20T08:25:34.925Z,48.16
2022-08-20T08:28:39.970Z,47.55
2022-08-20T08:31:43.388Z,46.33
2022-08-20T08:34:48.275Z,45.75
2022-08-20T08:37:51.742Z,44.88
2022-08-20T08:41:00.106Z,45.95
2022-08-20T08:44:14.513Z,45.79
2022-08-20T08:47:26.886Z,44.79
2022-08-20T08:50:54.164Z,44.53
2022-08-20T08:53:57.873Z,44.52
2022-08-20T08:57:02.213Z,44.26
2022-08-20T09:00:13.933Z,43.56
2022-08-20T09:03:24.595Z,44.64
2022-08-20T09:06:28.502Z,42.95
2022-08-20T09:09:35.931Z,44.25
2022-08-20T09:12:38.888Z,44.11
2022-08-20T09:15:42.515Z,43.68
2022-08-20T09:18:45.557Z,42.26
2022-08-20T09:21:49.317Z,42.77
2022-08-20T09:24:52.604Z,42.53
2022-08-20T09:27:55.798Z,42.02
2022-08-20T09:31:00.254Z,42.01
2022-08-20T09:34:03.795Z,43.37
2022-08-20T09:37:07.454Z,42.43
2022-08-20T09:40:10.798Z,42.11
2022-08-20T09:43:14.040Z,41.81
2022-08-20T09:46:17.365Z,39.52
2022-08-20T09:49:20.470Z,44.05
2022-08-20T09:52:29.562Z,48.68
2022-08-20T09:55:35.297Z,50.00
2022-08-20T09:58:50.361Z,49.75
2022-08-20T10:01:53.408Z,46.43
2022-08-20T10:04:56.699Z,45.00
2022-08-20T10:08:04.725Z,47.45
2022-08-20T10:11:08.010Z,49.34
2022-08-20T10:14:10.974Z,50.39
2022-08-20T10:17:14.264Z,50.61
2022-08-20T10:20:19.939Z,51.03
2022-08-20T10:23:23.115Z,49.00
2022-08-20T10:26:27.126Z,47.83
2022-08-20T10:29:31.115Z,47.87
2022-08-20T10:32:34.349Z,47.23
2022-08-20T10:35:37.653Z,44.33
2022-08-20T10:38:41.635Z,42.85
2022-08-20T10:41:45.394Z,45.37
2022-08-20T10:44:48.603Z,47.56
2022-08-20T10:47:52.160Z,47.23
2022-08-20T10:50:55.390Z,48.42
2022-08-20T10:53:58.917Z,43.87
2022-08-20T10:57:03.299Z,43.50
2022-08-20T11:00:11.216Z,44.46
2022-08-20T11:03:14.666Z,45.63
2022-08-20T11:06:18.051Z,43.26
2022-08-20T11:09:21.252Z,40.83
2022-08-20T11:12:25.557Z,40.00
2022-08-20T11:15:28.636Z,41.16
2022-08-20T11:18:32.475Z,41.85
2022-08-20T11:21:35.872Z,40.44
2022-08-20T11:24:39.332Z,38.71
2022-08-20T11:27:49.881Z,38.28
2022-08-20T11:30:53.439Z,39.22
2022-08-20T11:33:56.833Z,40.58
2022-08-20T11:37:00.914Z,38.51
2022-08-20T11:40:04.761Z,40.07
2022-08-20T11:43:14.571Z,41.60
2022-08-20T11:46:18.827Z,42.83
2022-08-20T11:49:22.530Z,42.05
2022-08-20T11:52:26.752Z,39.79
2022-08-20T11:55:32.881Z,38.09
2022-08-20T11:58:36.260Z,42.17
2022-08-20T12:01:40.161Z,52.51
2022-08-20T12:04:43.965Z,42.43
2022-08-20T12:07:47.677Z,44.96
2022-08-20T12:10:50.858Z,44.83
2022-08-20T12:13:54.978Z,44.04
2022-08-20T12:16:58.384Z,44.36
2022-08-20T12:20:07.238Z,44.97
2022-08-20T12:23:10.301Z,43.87
2022-08-20T12:26:14.195Z,43.34
2022-08-20T12:29:17.245Z,46.95
2022-08-20T12:32:22.480Z,44.73
2022-08-20T12:35:26.233Z,45.27
2022-08-20T12:38:29.425Z,45.66
2022-08-20T12:41:32.932Z,46.56
2022-08-20T12:44:36.947Z,45.91
2022-08-20T12:47:45.040Z,45.09
2022-08-20T12:50:50.231Z,44.74
2022-08-20T12:53:53.494Z,44.21
2022-08-20T12:56:57.226Z,44.92
2022-08-20T13:00:04.980Z,46.00
2022-08-20T13:03:08.880Z,45.68
2022-08-20T13:06:12.130Z,45.76
2022-08-20T13:09:17.036Z,45.98
2022-08-20T13:12:21.152Z,46.40
2022-08-20T13:15:25.490Z,47.64
2022-08-20T13:18:28.691Z,48.28
2022-08-20T13:21:32.738Z,46.80
2022-08-20T13:24:36.141Z,47.43
2022-08-20T13:27:42.434Z,48.31
2022-08-20T13:30:45.899Z,49.83
2022-08-20T13:33:49.152Z,49.72
2022-08-20T13:36:52.790Z,48.78
2022-08-20T13:39:58.770Z,49.43
2022-08-20T13:43:06.517Z,49.12
2022-08-20T13:46:11.691Z,48.98
2022-08-20T13:49:14.837Z,49.74
2022-08-20T13:52:18.535Z,50.53
2022-08-20T13:55:26.282Z,50.90
2022-08-20T13:58:29.813Z,51.48
2022-08-20T14:01:33.190Z,52.08
2022-08-20T14:04:36.651Z,52.10
2022-08-20T14:07:40.062Z,52.52
2022-08-20T14:10:44.606Z,53.18
2022-08-20T14:13:50.139Z,54.56
2022-08-20T14:16:53.765Z,56.20
2022-08-20T14:20:01.527Z,57.59
2022-08-20T14:23:05.362Z,57.42
2022-08-20T14:26:08.332Z,57.90
2022-08-20T14:29:11.714Z,58.02
2022-08-20T14:32:15.745Z,57.77
2022-08-20T14:35:20.069Z,57.75
2022-08-20T14:38:23.452Z,56.14
2022-08-20T14:41:26.836Z,56.19
2022-08-20T14:44:32.329Z,56.48
2022-08-20T14:47:38.795Z,56.71
2022-08-20T14:50:41.887Z,57.69
2022-08-20T14:53:45.424Z,57.89
2022-08-20T14:56:48.745Z,58.18
2022-08-20T14:59:55.222Z,58.67
2022-08-20T15:02:58.718Z,59.00
2022-08-20T15:06:02.609Z,58.56
2022-08-20T15:09:05.937Z,58.16
2022-08-20T15:12:09.253Z,58.14
2022-08-20T15:15:15.872Z,58.39
2022-08-20T15:18:22.514Z,58.05
2022-08-20T15:21:26.258Z,58.02
2022-08-20T15:24:29.537Z,57.80
2022-08-20T15:27:32.867Z,57.85
2022-08-20T15:30:39.839Z,58.87
2022-08-20T15:33:42.918Z,59.04
2022-08-20T15:36:46.331Z,58.93
2022-08-20T15:39:50.939Z,59.34
2022-08-20T15:42:54.865Z,59.70
2022-08-20T15:45:59.738Z,59.85
2022-08-20T15:49:03.667Z,60.29
2022-08-20T15:52:07.554Z,61.47
2022-08-20T15:55:14.739Z,61.26
2022-08-20T15:58:27.227Z,60.42
2022-08-20T16:01:58.803Z,60.01
2022-08-20T16:05:44.102Z,60.63
2022-08-20T16:09:07.624Z,60.94
2022-08-20T16:12:17.703Z,61.32
2022-08-20T16:15:25.883Z,60.49
2022-08-20T16:18:36.881Z,60.87
2022-08-20T16:21:44.992Z,61.02
2022-08-20T16:24:49.862Z,60.38
2022-08-20T16:28:11.141Z,60.15
2022-08-20T16:31:19.485Z,60.47
2022-08-20T16:34:37.752Z,59.18
2022-08-20T16:37:54.665Z,57.88
2022-08-20T16:41:08.819Z,57.91
2022-08-20T16:44:45.143Z,57.83
2022-08-20T16:47:51.004Z,58.76
2022-08-20T16:51:11.928Z,59.60
2022-08-20T16:54:16.224Z,59.94
2022-08-20T16:57:20.094Z,59.74
2022-08-20T17:00:25.370Z,60.45
2022-08-20T17:03:31.656Z,60.69
2022-08-20T17:06:49.383Z,60.18
2022-08-20T17:10:10.422Z,60.00
2022-08-20T17:13:14.248Z,59.93
2022-08-20T17:16:21.584Z,59.47
2022-08-20T17:19:31.495Z,59.54
2022-08-20T17:22:44.332Z,59.93
2022-08-20T17:26:01.147Z,59.37
2022-08-20T17:29:15.123Z,59.63
2022-08-20T17:32:27.950Z,60.18
2022-08-20T17:35:51.894Z,60.10
2022-08-20T17:38:58.659Z,59.43
2022-08-20T17:42:04.758Z,59.63
2022-08-20T17:45:34.477Z,59.99
2022-08-20T17:48:43.213Z,60.55
2022-08-20T17:51:55.211Z,60.74
2022-08-20T17:54:58.927Z,61.62
2022-08-20T17:58:04.711Z,62.48
2022-08-20T18:01:13.274Z,62.93
2022-08-20T18:04:18.481Z,63.74
2022-08-20T18:07:52.551Z,64.73
2022-08-20T18:11:18.782Z,65.10
2022-08-20T18:14:41.819Z,65.69
2022-08-20T18:18:03.959Z,66.18
2022-08-20T18:21:34.867Z,66.98
2022-08-20T18:24:58.734Z,67.64
2022-08-20T18:28:10.721Z,67.85
2022-08-20T18:31:28.291Z,68.04
2022-08-20T18:34:39.749Z,68.35
2022-08-20T18:37:43.302Z,68.42
2022-08-20T18:40:46.489Z,68.69
2022-08-20T18:43:50.055Z,68.69
2022-08-20T18:46:56.526Z,69.11
2022-08-20T18:50:16.057Z,69.74
2022-08-20T18:53:42.508Z,70.07
2022-08-20T18:56:45.707Z,70.58
2022-08-20T19:00:14.640Z,70.54
2022-08-20T19:03:36.780Z,71.15
2022-08-20T19:06:57.324Z,71.71
2022-08-20T19:10:29.328Z,72.02
2022-08-20T19:13:54.091Z,72.25
2022-08-20T19:17:33.212Z,72.35
2022-08-20T19:20:39.492Z,72.17
2022-08-20T19:23:49.741Z,72.40
2022-08-20T19:26:58.854Z,72.72
2022-08-20T19:30:02.676Z,72.81
2022-08-20T19:33:09.599Z,73.00
2022-08-20T19:36:13.716Z,73.26
2022-08-20T19:39:20.522Z,73.12
2022-08-20T19:42:40.733Z,73.41
2022-08-20T19:45:58.183Z,73.58
2022-08-20T19:49:32.657Z,73.82
2022-08-20T19:52:56.660Z,73.95
2022-08-20T19:56:07.359Z,74.01
2022-08-20T19:59:18.002Z,74.57
2022-08-20T20:02:24.292Z,74.64
2022-08-20T20:05:27.934Z,74.68
2022-08-20T20:08:45.271Z,74.86
2022-08-20T20:11:53.655Z,75.11
2022-08-20T20:14:58.070Z,75.22
2022-08-20T20:18:01.857Z,75.02
2022-08-20T20:21:21.548Z,75.27
2022-08-20T20:24:41.828Z,75.59
2022-08-20T20:27:57.152Z,76.00
2022-08-20T20:31:08.441Z,75.94
2022-08-20T20:34:14.875Z,76.01
2022-08-20T20:37:48.891Z,76.11
2022-08-20T20:40:59.480Z,76.19
2022-08-20T20:44:18.940Z,76.41
2022-08-20T20:47:35.876Z,76.35
2022-08-20T20:50:39.779Z,76.35
2022-08-20T20:53:54.415Z,76.45
2022-08-20T20:57:05.122Z,76.58
2022-08-20T21:00:14.795Z,76.68
2022-08-20T21:03:17.952Z,76.81
2022-08-20T21:06:25.309Z,76.66
2022-08-20T21:09:28.512Z,76.69
2022-08-20T21:12:31.641Z,76.77
2022-08-20T21:15:36.610Z,76.77
2022-08-20T21:18:41.679Z,76.98
2022-08-20T21:21:44.976Z,76.84
2022-08-20T21:24:51.759Z,77.11
2022-08-20T21:27:55.568Z,77.14
2022-08-20T21:30:59.434Z,77.02
2022-08-20T21:34:03.271Z,77.28
2022-08-20T21:37:06.581Z,77.19
2022-08-20T21:40:10.921Z,77.25
2022-08-20T21:43:14.872Z,77.44
2022-08-20T21:46:18.211Z,77.37
2022-08-20T21:49:29.968Z,77.41
2022-08-20T21:52:33.062Z,77.54
2022-08-20T21:55:39.860Z,77.52
2022-08-20T21:58:46.616Z,77.67
2022-08-20T22:01:50.597Z,77.84
2022-08-20T22:04:54.913Z,77.72
2022-08-20T22:07:58.303Z,77.99
2022-08-20T22:11:02.561Z,78.10
2022-08-20T22:14:07.513Z,78.40
2022-08-20T22:17:11.094Z,78.51
2022-08-20T22:20:14.586Z,78.14
2022-08-20T22:23:17.891Z,78.14
2022-08-20T22:26:21.542Z,78.25
2022-08-20T22:29:24.831Z,78.06
2022-08-20T22:32:33.376Z,78.26
2022-08-20T22:35:54.382Z,78.42
2022-08-20T22:38:58.067Z,78.66
2022-08-20T22:42:01.703Z,78.80
2022-08-20T22:45:11.646Z,78.78
2022-08-20T22:48:20.908Z,79.32
2022-08-20T22:51:30.397Z,76.03
2022-08-20T22:54:34.968Z,77.24
2022-08-20T22:57:38.682Z,78.07
2022-08-20T23:00:45.094Z,78.41
2022-08-20T23:03:48.504Z,78.28
2022-08-20T23:06:52.676Z,78.49
2022-08-20T23:09:56.105Z,79.98
2022-08-20T23:12:59.404Z,72.31
2022-08-20T23:16:05.157Z,73.12
2022-08-20T23:19:12.047Z,75.78
2022-08-20T23:22:16.193Z,77.36
2022-08-20T23:25:19.439Z,78.10
2022-08-20T23:28:24.327Z,78.46
2022-08-20T23:31:27.243Z,78.86
2022-08-20T23:34:30.898Z,79.26
2022-08-20T23:37:42.569Z,79.41
2022-08-20T23:40:46.049Z,79.24
2022-08-20T23:43:49.052Z,79.29
2022-08-20T23:46:52.691Z,79.70
2022-08-20T23:49:57.889Z,79.74
2022-08-20T23:53:02.179Z,79.59
2022-08-20T23:56:05.717Z,79.43
2022-08-20T23:59:09.314Z,79.22
